sensor_id;sensor_type;location;lat;lon;timestamp;P1;durP1;ratioP1;P2;durP2;ratioP2
33190;SDS011;19554;42.652;23.364;2023-05-07T00:01:25;9.13;;;5.50;;
33190;SDS011;19554;42.652;23.364;2023-05-07T00:03:51;8.50;;;5.53;;
33190;SDS011;19554;42.652;23.364;2023-05-07T00:06:16;10.13;;;6.00;;
33190;SDS011;19554;42.652;23.364;2023-05-07T00:08:42;9.85;;;5.68;;
33190;SDS011;19554;42.652;23.364;2023-05-07T00:11:07;11.65;;;5.97;;
33190;SDS011;19554;42.652;23.364;2023-05-07T00:13:33;6.07;;;5.47;;
33190;SDS011;19554;42.652;23.364;2023-05-07T00:16:01;11.13;;;5.50;;
33190;SDS011;19554;42.652;23.364;2023-05-07T00:18:29;12.63;;;5.30;;
33190;SDS011;19554;42.652;23.364;2023-05-07T00:20:54;8.45;;;5.18;;
33190;SDS011;19554;42.652;23.364;2023-05-07T00:23:21;7.50;;;4.80;;
33190;SDS011;19554;42.652;23.364;2023-05-07T00:25:46;8.23;;;5.40;;
33190;SDS011;19554;42.652;23.364;2023-05-07T00:28:12;8.43;;;5.40;;
33190;SDS011;19554;42.652;23.364;2023-05-07T00:30:37;12.10;;;6.75;;
33190;SDS011;19554;42.652;23.364;2023-05-07T00:33:02;9.05;;;6.45;;
33190;SDS011;19554;42.652;23.364;2023-05-07T00:35:28;8.70;;;5.60;;
33190;SDS011;19554;42.652;23.364;2023-05-07T00:37:54;11.98;;;7.25;;
33190;SDS011;19554;42.652;23.364;2023-05-07T00:40:20;15.55;;;8.25;;
33190;SDS011;19554;42.652;23.364;2023-05-07T00:42:46;12.40;;;7.63;;
33190;SDS011;19554;42.652;23.364;2023-05-07T00:45:12;9.82;;;7.00;;
33190;SDS011;19554;42.652;23.364;2023-05-07T00:47:38;13.82;;;7.55;;
33190;SDS011;19554;42.652;23.364;2023-05-07T00:50:05;16.75;;;7.68;;
33190;SDS011;19554;42.652;23.364;2023-05-07T00:52:31;12.05;;;7.18;;
33190;SDS011;19554;42.652;23.364;2023-05-07T00:54:56;11.13;;;7.55;;
33190;SDS011;19554;42.652;23.364;2023-05-07T00:57:22;11.07;;;8.15;;
33190;SDS011;19554;42.652;23.364;2023-05-07T00:59:50;14.50;;;8.20;;
33190;SDS011;19554;42.652;23.364;2023-05-07T01:02:16;13.80;;;8.73;;
33190;SDS011;19554;42.652;23.364;2023-05-07T01:04:42;9.95;;;6.80;;
33190;SDS011;19554;42.652;23.364;2023-05-07T01:07:07;10.63;;;6.22;;
33190;SDS011;19554;42.652;23.364;2023-05-07T01:09:33;14.23;;;6.13;;
33190;SDS011;19554;42.652;23.364;2023-05-07T01:12:00;9.43;;;5.10;;
33190;SDS011;19554;42.652;23.364;2023-05-07T01:14:26;8.30;;;5.18;;
33190;SDS011;19554;42.652;23.364;2023-05-07T01:16:52;9.45;;;4.63;;
33190;SDS011;19554;42.652;23.364;2023-05-07T01:19:18;8.65;;;5.07;;
33190;SDS011;19554;42.652;23.364;2023-05-07T01:21:45;7.65;;;5.55;;
33190;SDS011;19554;42.652;23.364;2023-05-07T01:24:12;7.78;;;5.40;;
33190;SDS011;19554;42.652;23.364;2023-05-07T01:26:39;8.07;;;5.80;;
33190;SDS011;19554;42.652;23.364;2023-05-07T01:29:04;7.80;;;6.20;;
33190;SDS011;19554;42.652;23.364;2023-05-07T01:31:30;9.05;;;5.90;;
33190;SDS011;19554;42.652;23.364;2023-05-07T01:33:57;8.88;;;6.18;;
33190;SDS011;19554;42.652;23.364;2023-05-07T01:36:24;9.90;;;5.55;;
33190;SDS011;19554;42.652;23.364;2023-05-07T01:38:52;9.98;;;6.00;;
33190;SDS011;19554;42.652;23.364;2023-05-07T01:41:18;8.45;;;6.32;;
33190;SDS011;19554;42.652;23.364;2023-05-07T01:43:44;9.10;;;7.25;;
33190;SDS011;19554;42.652;23.364;2023-05-07T01:46:11;12.80;;;8.07;;
33190;SDS011;19554;42.652;23.364;2023-05-07T01:48:38;9.55;;;7.70;;
33190;SDS011;19554;42.652;23.364;2023-05-07T01:51:04;12.57;;;9.07;;
33190;SDS011;19554;42.652;23.364;2023-05-07T01:53:35;9.95;;;8.38;;
33190;SDS011;19554;42.652;23.364;2023-05-07T01:56:01;11.60;;;8.70;;
33190;SDS011;19554;42.652;23.364;2023-05-07T01:58:27;11.43;;;8.20;;
33190;SDS011;19554;42.652;23.364;2023-05-07T02:00:52;14.07;;;9.48;;
33190;SDS011;19554;42.652;23.364;2023-05-07T02:03:18;13.65;;;9.30;;
33190;SDS011;19554;42.652;23.364;2023-05-07T02:05:43;11.85;;;8.85;;
33190;SDS011;19554;42.652;23.364;2023-05-07T02:08:08;11.50;;;8.60;;
33190;SDS011;19554;42.652;23.364;2023-05-07T02:10:34;16.70;;;9.07;;
33190;SDS011;19554;42.652;23.364;2023-05-07T02:13:00;12.15;;;9.23;;
33190;SDS011;19554;42.652;23.364;2023-05-07T02:15:27;12.52;;;9.70;;
33190;SDS011;19554;42.652;23.364;2023-05-07T02:18:05;16.63;;;9.93;;
33190;SDS011;19554;42.652;23.364;2023-05-07T02:20:32;11.77;;;8.88;;
33190;SDS011;19554;42.652;23.364;2023-05-07T02:22:57;11.52;;;9.88;;
33190;SDS011;19554;42.652;23.364;2023-05-07T02:25:22;14.05;;;10.13;;
33190;SDS011;19554;42.652;23.364;2023-05-07T02:27:48;12.55;;;9.65;;
33190;SDS011;19554;42.652;23.364;2023-05-07T02:30:14;12.45;;;9.68;;
33190;SDS011;19554;42.652;23.364;2023-05-07T02:32:39;15.57;;;10.80;;
33190;SDS011;19554;42.652;23.364;2023-05-07T02:35:04;13.13;;;10.15;;
33190;SDS011;19554;42.652;23.364;2023-05-07T02:37:30;13.70;;;10.05;;
33190;SDS011;19554;42.652;23.364;2023-05-07T02:39:55;12.70;;;9.48;;
33190;SDS011;19554;42.652;23.364;2023-05-07T02:42:21;13.60;;;9.88;;
33190;SDS011;19554;42.652;23.364;2023-05-07T02:44:46;11.38;;;9.63;;
33190;SDS011;19554;42.652;23.364;2023-05-07T02:47:13;15.98;;;10.07;;
33190;SDS011;19554;42.652;23.364;2023-05-07T02:49:39;13.90;;;10.32;;
33190;SDS011;19554;42.652;23.364;2023-05-07T02:52:04;13.55;;;10.73;;
33190;SDS011;19554;42.652;23.364;2023-05-07T02:54:30;13.10;;;10.35;;
33190;SDS011;19554;42.652;23.364;2023-05-07T02:56:55;15.88;;;11.63;;
33190;SDS011;19554;42.652;23.364;2023-05-07T02:59:21;16.67;;;12.45;;
33190;SDS011;19554;42.652;23.364;2023-05-07T03:01:46;16.00;;;11.55;;
33190;SDS011;19554;42.652;23.364;2023-05-07T03:04:13;21.27;;;12.20;;
33190;SDS011;19554;42.652;23.364;2023-05-07T03:06:38;17.00;;;13.68;;
33190;SDS011;19554;42.652;23.364;2023-05-07T03:09:04;18.00;;;12.43;;
33190;SDS011;19554;42.652;23.364;2023-05-07T03:11:29;20.60;;;12.70;;
33190;SDS011;19554;42.652;23.364;2023-05-07T03:13:54;19.80;;;14.10;;
33190;SDS011;19554;42.652;23.364;2023-05-07T03:16:20;16.92;;;12.98;;
33190;SDS011;19554;42.652;23.364;2023-05-07T03:18:45;18.50;;;13.45;;
33190;SDS011;19554;42.652;23.364;2023-05-07T03:21:11;20.17;;;13.35;;
33190;SDS011;19554;42.652;23.364;2023-05-07T03:23:36;17.90;;;13.88;;
33190;SDS011;19554;42.652;23.364;2023-05-07T03:26:02;18.13;;;13.60;;
33190;SDS011;19554;42.652;23.364;2023-05-07T03:28:27;21.38;;;14.15;;
33190;SDS011;19554;42.652;23.364;2023-05-07T03:30:52;17.92;;;14.20;;
33190;SDS011;19554;42.652;23.364;2023-05-07T03:33:18;18.85;;;14.10;;
33190;SDS011;19554;42.652;23.364;2023-05-07T03:35:43;20.70;;;14.63;;
33190;SDS011;19554;42.652;23.364;2023-05-07T03:38:08;19.35;;;14.48;;
33190;SDS011;19554;42.652;23.364;2023-05-07T03:40:34;18.75;;;13.95;;
33190;SDS011;19554;42.652;23.364;2023-05-07T03:43:00;17.55;;;13.40;;
33190;SDS011;19554;42.652;23.364;2023-05-07T03:45:25;16.80;;;11.82;;
33190;SDS011;19554;42.652;23.364;2023-05-07T03:47:51;14.25;;;11.07;;
33190;SDS011;19554;42.652;23.364;2023-05-07T03:50:16;15.63;;;10.73;;
33190;SDS011;19554;42.652;23.364;2023-05-07T03:52:42;14.60;;;10.68;;
33190;SDS011;19554;42.652;23.364;2023-05-07T03:55:07;14.50;;;9.98;;
33190;SDS011;19554;42.652;23.364;2023-05-07T03:57:33;14.50;;;10.25;;
33190;SDS011;19554;42.652;23.364;2023-05-07T03:59:58;12.73;;;9.85;;
33190;SDS011;19554;42.652;23.364;2023-05-07T04:02:24;15.98;;;9.77;;
33190;SDS011;19554;42.652;23.364;2023-05-07T04:04:49;14.55;;;8.32;;
33190;SDS011;19554;42.652;23.364;2023-05-07T04:07:15;13.88;;;8.30;;
33190;SDS011;19554;42.652;23.364;2023-05-07T04:09:40;14.40;;;8.23;;
33190;SDS011;19554;42.652;23.364;2023-05-07T04:12:05;12.10;;;9.05;;
33190;SDS011;19554;42.652;23.364;2023-05-07T04:14:31;13.75;;;8.60;;
33190;SDS011;19554;42.652;23.364;2023-05-07T04:16:57;12.43;;;7.97;;
33190;SDS011;19554;42.652;23.364;2023-05-07T04:19:24;12.23;;;8.23;;
33190;SDS011;19554;42.652;23.364;2023-05-07T04:21:49;15.57;;;8.75;;
33190;SDS011;19554;42.652;23.364;2023-05-07T04:24:15;15.82;;;8.75;;
33190;SDS011;19554;42.652;23.364;2023-05-07T04:26:40;13.05;;;8.30;;
33190;SDS011;19554;42.652;23.364;2023-05-07T04:29:06;10.32;;;7.80;;
33190;SDS011;19554;42.652;23.364;2023-05-07T04:31:31;11.95;;;8.70;;
33190;SDS011;19554;42.652;23.364;2023-05-07T04:33:57;15.27;;;9.35;;
33190;SDS011;19554;42.652;23.364;2023-05-07T04:36:22;10.93;;;8.27;;
33190;SDS011;19554;42.652;23.364;2023-05-07T04:38:51;15.55;;;8.80;;
33190;SDS011;19554;42.652;23.364;2023-05-07T04:41:16;13.55;;;9.00;;
33190;SDS011;19554;42.652;23.364;2023-05-07T04:43:41;17.17;;;10.98;;
33190;SDS011;19554;42.652;23.364;2023-05-07T04:46:07;18.38;;;12.93;;
33190;SDS011;19554;42.652;23.364;2023-05-07T04:48:33;19.77;;;9.93;;
33190;SDS011;19554;42.652;23.364;2023-05-07T04:50:58;14.82;;;9.35;;
33190;SDS011;19554;42.652;23.364;2023-05-07T04:53:24;15.98;;;8.82;;
33190;SDS011;19554;42.652;23.364;2023-05-07T04:55:54;15.90;;;8.73;;
33190;SDS011;19554;42.652;23.364;2023-05-07T04:58:20;13.75;;;9.30;;
33190;SDS011;19554;42.652;23.364;2023-05-07T05:00:46;15.70;;;9.48;;
33190;SDS011;19554;42.652;23.364;2023-05-07T05:03:11;16.67;;;9.90;;
33190;SDS011;19554;42.652;23.364;2023-05-07T05:05:37;13.05;;;9.68;;
33190;SDS011;19554;42.652;23.364;2023-05-07T05:08:03;12.32;;;9.40;;
33190;SDS011;19554;42.652;23.364;2023-05-07T05:10:28;12.13;;;8.90;;
33190;SDS011;19554;42.652;23.364;2023-05-07T05:12:53;12.85;;;9.48;;
33190;SDS011;19554;42.652;23.364;2023-05-07T05:15:19;14.18;;;9.88;;
33190;SDS011;19554;42.652;23.364;2023-05-07T05:17:44;15.77;;;9.85;;
33190;SDS011;19554;42.652;23.364;2023-05-07T05:20:10;14.48;;;9.10;;
33190;SDS011;19554;42.652;23.364;2023-05-07T05:22:36;15.80;;;9.52;;
33190;SDS011;19554;42.652;23.364;2023-05-07T05:25:02;16.77;;;10.02;;
33190;SDS011;19554;42.652;23.364;2023-05-07T05:27:28;18.05;;;9.45;;
33190;SDS011;19554;42.652;23.364;2023-05-07T05:29:53;15.57;;;10.07;;
33190;SDS011;19554;42.652;23.364;2023-05-07T05:32:19;12.88;;;10.25;;
33190;SDS011;19554;42.652;23.364;2023-05-07T05:34:44;16.42;;;10.50;;
33190;SDS011;19554;42.652;23.364;2023-05-07T05:37:10;13.55;;;10.52;;
33190;SDS011;19554;42.652;23.364;2023-05-07T05:39:35;15.95;;;10.38;;
33190;SDS011;19554;42.652;23.364;2023-05-07T05:42:01;19.85;;;10.63;;
33190;SDS011;19554;42.652;23.364;2023-05-07T05:44:26;18.45;;;13.10;;
33190;SDS011;19554;42.652;23.364;2023-05-07T05:46:52;14.95;;;10.63;;
33190;SDS011;19554;42.652;23.364;2023-05-07T05:49:20;17.33;;;11.35;;
33190;SDS011;19554;42.652;23.364;2023-05-07T05:51:45;15.05;;;9.90;;
33190;SDS011;19554;42.652;23.364;2023-05-07T05:54:11;15.18;;;11.02;;
33190;SDS011;19554;42.652;23.364;2023-05-07T05:56:36;15.63;;;10.43;;
33190;SDS011;19554;42.652;23.364;2023-05-07T05:59:02;14.18;;;11.23;;
33190;SDS011;19554;42.652;23.364;2023-05-07T06:01:27;18.00;;;11.10;;
33190;SDS011;19554;42.652;23.364;2023-05-07T06:03:53;15.45;;;10.18;;
33190;SDS011;19554;42.652;23.364;2023-05-07T06:06:18;16.08;;;11.18;;
33190;SDS011;19554;42.652;23.364;2023-05-07T06:08:44;14.00;;;10.55;;
33190;SDS011;19554;42.652;23.364;2023-05-07T06:11:09;16.40;;;10.40;;
33190;SDS011;19554;42.652;23.364;2023-05-07T06:13:35;15.40;;;10.85;;
33190;SDS011;19554;42.652;23.364;2023-05-07T06:16:00;14.85;;;10.63;;
33190;SDS011;19554;42.652;23.364;2023-05-07T06:18:25;13.98;;;10.27;;
33190;SDS011;19554;42.652;23.364;2023-05-07T06:20:51;17.45;;;10.95;;
33190;SDS011;19554;42.652;23.364;2023-05-07T06:23:17;19.45;;;10.13;;
33190;SDS011;19554;42.652;23.364;2023-05-07T06:25:45;14.45;;;10.57;;
33190;SDS011;19554;42.652;23.364;2023-05-07T06:28:13;13.05;;;10.32;;
33190;SDS011;19554;42.652;23.364;2023-05-07T06:30:38;14.73;;;10.43;;
33190;SDS011;19554;42.652;23.364;2023-05-07T06:33:05;11.90;;;9.80;;
33190;SDS011;19554;42.652;23.364;2023-05-07T06:35:30;14.18;;;9.63;;
33190;SDS011;19554;42.652;23.364;2023-05-07T06:37:56;14.38;;;9.50;;
33190;SDS011;19554;42.652;23.364;2023-05-07T06:40:21;13.43;;;9.68;;
33190;SDS011;19554;42.652;23.364;2023-05-07T06:42:46;13.35;;;9.95;;
33190;SDS011;19554;42.652;23.364;2023-05-07T06:45:12;13.43;;;9.68;;
33190;SDS011;19554;42.652;23.364;2023-05-07T06:47:37;11.88;;;9.35;;
33190;SDS011;19554;42.652;23.364;2023-05-07T06:50:03;16.15;;;10.13;;
33190;SDS011;19554;42.652;23.364;2023-05-07T06:52:28;13.27;;;9.65;;
33190;SDS011;19554;42.652;23.364;2023-05-07T06:54:53;12.23;;;8.50;;
33190;SDS011;19554;42.652;23.364;2023-05-07T06:57:19;26.80;;;9.18;;
33190;SDS011;19554;42.652;23.364;2023-05-07T06:59:44;13.70;;;8.70;;
33190;SDS011;19554;42.652;23.364;2023-05-07T07:02:09;14.27;;;9.05;;
33190;SDS011;19554;42.652;23.364;2023-05-07T07:04:35;13.07;;;9.02;;
33190;SDS011;19554;42.652;23.364;2023-05-07T07:07:00;13.60;;;9.20;;
33190;SDS011;19554;42.652;23.364;2023-05-07T07:09:25;12.57;;;8.95;;
33190;SDS011;19554;42.652;23.364;2023-05-07T07:11:51;12.07;;;8.50;;
33190;SDS011;19554;42.652;23.364;2023-05-07T07:14:16;15.18;;;9.20;;
33190;SDS011;19554;42.652;23.364;2023-05-07T07:16:42;13.98;;;8.98;;
33190;SDS011;19554;42.652;23.364;2023-05-07T07:19:07;13.55;;;8.95;;
33190;SDS011;19554;42.652;23.364;2023-05-07T07:21:33;15.50;;;9.32;;
33190;SDS011;19554;42.652;23.364;2023-05-07T07:23:58;12.88;;;9.32;;
33190;SDS011;19554;42.652;23.364;2023-05-07T07:26:23;14.70;;;8.70;;
33190;SDS011;19554;42.652;23.364;2023-05-07T07:28:49;14.85;;;8.25;;
33190;SDS011;19554;42.652;23.364;2023-05-07T07:31:14;15.25;;;8.32;;
33190;SDS011;19554;42.652;23.364;2023-05-07T07:33:40;11.85;;;8.02;;
33190;SDS011;19554;42.652;23.364;2023-05-07T07:36:06;10.20;;;7.90;;
33190;SDS011;19554;42.652;23.364;2023-05-07T07:38:32;12.85;;;7.85;;
33190;SDS011;19554;42.652;23.364;2023-05-07T07:40:58;12.40;;;7.50;;
33190;SDS011;19554;42.652;23.364;2023-05-07T07:43:23;11.80;;;7.20;;
33190;SDS011;19554;42.652;23.364;2023-05-07T07:45:49;11.55;;;7.80;;
33190;SDS011;19554;42.652;23.364;2023-05-07T07:48:14;13.40;;;8.25;;
33190;SDS011;19554;42.652;23.364;2023-05-07T07:50:40;12.02;;;8.07;;
33190;SDS011;19554;42.652;23.364;2023-05-07T07:53:05;12.25;;;8.00;;
33190;SDS011;19554;42.652;23.364;2023-05-07T07:55:30;12.43;;;8.73;;
33190;SDS011;19554;42.652;23.364;2023-05-07T07:57:57;10.25;;;8.68;;
33190;SDS011;19554;42.652;23.364;2023-05-07T08:00:22;11.10;;;9.15;;
33190;SDS011;19554;42.652;23.364;2023-05-07T08:02:47;12.40;;;9.38;;
33190;SDS011;19554;42.652;23.364;2023-05-07T08:05:13;21.42;;;9.75;;
33190;SDS011;19554;42.652;23.364;2023-05-07T08:07:38;16.48;;;9.90;;
33190;SDS011;19554;42.652;23.364;2023-05-07T08:10:04;13.00;;;8.85;;
33190;SDS011;19554;42.652;23.364;2023-05-07T08:12:30;14.13;;;9.30;;
33190;SDS011;19554;42.652;23.364;2023-05-07T08:14:55;15.13;;;10.32;;
33190;SDS011;19554;42.652;23.364;2023-05-07T08:17:20;15.27;;;9.75;;
33190;SDS011;19554;42.652;23.364;2023-05-07T08:19:47;13.70;;;9.80;;
33190;SDS011;19554;42.652;23.364;2023-05-07T08:22:13;16.48;;;9.73;;
33190;SDS011;19554;42.652;23.364;2023-05-07T08:24:39;15.75;;;9.25;;
33190;SDS011;19554;42.652;23.364;2023-05-07T08:27:05;15.27;;;8.85;;
33190;SDS011;19554;42.652;23.364;2023-05-07T08:29:30;15.55;;;9.13;;
33190;SDS011;19554;42.652;23.364;2023-05-07T08:31:56;17.05;;;10.15;;
33190;SDS011;19554;42.652;23.364;2023-05-07T08:34:21;16.50;;;10.13;;
33190;SDS011;19554;42.652;23.364;2023-05-07T08:36:47;20.20;;;10.20;;
33190;SDS011;19554;42.652;23.364;2023-05-07T08:39:13;16.52;;;10.30;;
33190;SDS011;19554;42.652;23.364;2023-05-07T08:41:40;16.83;;;9.95;;
33190;SDS011;19554;42.652;23.364;2023-05-07T08:44:11;14.57;;;10.13;;
33190;SDS011;19554;42.652;23.364;2023-05-07T08:46:39;11.68;;;9.45;;
33190;SDS011;19554;42.652;23.364;2023-05-07T08:49:05;19.88;;;8.98;;
33190;SDS011;19554;42.652;23.364;2023-05-07T08:51:30;9.35;;;7.57;;
33190;SDS011;19554;42.652;23.364;2023-05-07T08:53:56;12.48;;;7.82;;
33190;SDS011;19554;42.652;23.364;2023-05-07T08:56:21;11.55;;;7.63;;
33190;SDS011;19554;42.652;23.364;2023-05-07T08:58:47;14.90;;;8.93;;
33190;SDS011;19554;42.652;23.364;2023-05-07T09:01:14;11.77;;;7.20;;
33190;SDS011;19554;42.652;23.364;2023-05-07T09:03:41;11.80;;;6.18;;
33190;SDS011;19554;42.652;23.364;2023-05-07T09:08:36;13.93;;;5.90;;
33190;SDS011;19554;42.652;23.364;2023-05-07T09:11:02;8.95;;;5.82;;
33190;SDS011;19554;42.652;23.364;2023-05-07T09:13:27;11.23;;;5.72;;
33190;SDS011;19554;42.652;23.364;2023-05-07T09:15:53;5.75;;;4.43;;
33190;SDS011;19554;42.652;23.364;2023-05-07T09:18:18;8.25;;;5.70;;
33190;SDS011;19554;42.652;23.364;2023-05-07T09:20:44;11.93;;;5.93;;
33190;SDS011;19554;42.652;23.364;2023-05-07T09:23:09;9.63;;;6.03;;
33190;SDS011;19554;42.652;23.364;2023-05-07T09:25:35;7.78;;;6.30;;
33190;SDS011;19554;42.652;23.364;2023-05-07T09:28:01;8.02;;;5.63;;
33190;SDS011;19554;42.652;23.364;2023-05-07T09:30:31;11.68;;;6.38;;
33190;SDS011;19554;42.652;23.364;2023-05-07T09:32:58;8.48;;;6.60;;
33190;SDS011;19554;42.652;23.364;2023-05-07T09:35:25;10.05;;;6.32;;
33190;SDS011;19554;42.652;23.364;2023-05-07T09:37:55;8.50;;;6.05;;
33190;SDS011;19554;42.652;23.364;2023-05-07T09:40:22;10.43;;;6.32;;
33190;SDS011;19554;42.652;23.364;2023-05-07T09:42:49;8.23;;;5.72;;
33190;SDS011;19554;42.652;23.364;2023-05-07T09:45:36;8.38;;;6.10;;
33190;SDS011;19554;42.652;23.364;2023-05-07T09:48:01;7.05;;;4.97;;
33190;SDS011;19554;42.652;23.364;2023-05-07T09:50:36;8.43;;;5.40;;
33190;SDS011;19554;42.652;23.364;2023-05-07T09:53:12;13.07;;;6.40;;
33190;SDS011;19554;42.652;23.364;2023-05-07T09:55:39;7.45;;;5.85;;
33190;SDS011;19554;42.652;23.364;2023-05-07T09:58:05;9.45;;;5.38;;
33190;SDS011;19554;42.652;23.364;2023-05-07T10:00:31;11.25;;;6.55;;
33190;SDS011;19554;42.652;23.364;2023-05-07T10:02:58;6.22;;;5.03;;
33190;SDS011;19554;42.652;23.364;2023-05-07T10:05:25;8.30;;;5.18;;
33190;SDS011;19554;42.652;23.364;2023-05-07T10:07:51;8.68;;;5.60;;
33190;SDS011;19554;42.652;23.364;2023-05-07T10:10:18;10.85;;;5.43;;
33190;SDS011;19554;42.652;23.364;2023-05-07T10:12:43;9.18;;;4.93;;
33190;SDS011;19554;42.652;23.364;2023-05-07T10:15:10;7.60;;;5.05;;
33190;SDS011;19554;42.652;23.364;2023-05-07T10:17:38;7.13;;;5.10;;
33190;SDS011;19554;42.652;23.364;2023-05-07T10:20:07;7.20;;;4.90;;
33190;SDS011;19554;42.652;23.364;2023-05-07T10:22:41;5.68;;;4.57;;
33190;SDS011;19554;42.652;23.364;2023-05-07T10:27:56;9.55;;;5.15;;
33190;SDS011;19554;42.652;23.364;2023-05-07T10:33:11;5.15;;;4.10;;
33190;SDS011;19554;42.652;23.364;2023-05-07T10:35:40;6.75;;;5.65;;
33190;SDS011;19554;42.652;23.364;2023-05-07T10:38:07;6.45;;;5.13;;
33190;SDS011;19554;42.652;23.364;2023-05-07T10:40:33;8.65;;;5.03;;
33190;SDS011;19554;42.652;23.364;2023-05-07T10:43:00;8.75;;;5.18;;
33190;SDS011;19554;42.652;23.364;2023-05-07T10:45:27;7.20;;;5.70;;
33190;SDS011;19554;42.652;23.364;2023-05-07T10:48:12;8.95;;;4.88;;
33190;SDS011;19554;42.652;23.364;2023-05-07T10:50:38;6.10;;;4.70;;
33190;SDS011;19554;42.652;23.364;2023-05-07T10:55:43;6.40;;;4.88;;
33190;SDS011;19554;42.652;23.364;2023-05-07T10:58:29;6.35;;;4.70;;
33190;SDS011;19554;42.652;23.364;2023-05-07T11:00:58;12.00;;;4.68;;
33190;SDS011;19554;42.652;23.364;2023-05-07T11:03:25;10.63;;;4.80;;
33190;SDS011;19554;42.652;23.364;2023-05-07T11:12:05;5.75;;;4.65;;
33190;SDS011;19554;42.652;23.364;2023-05-07T11:15:03;6.53;;;4.82;;
33190;SDS011;19554;42.652;23.364;2023-05-07T11:17:11;5.75;;;4.47;;
33190;SDS011;19554;42.652;23.364;2023-05-07T11:22:35;6.05;;;4.40;;
33190;SDS011;19554;42.652;23.364;2023-05-07T11:25:05;4.95;;;4.45;;
33190;SDS011;19554;42.652;23.364;2023-05-07T11:27:31;5.75;;;5.00;;
33190;SDS011;19554;42.652;23.364;2023-05-07T11:29:57;7.45;;;4.60;;
33190;SDS011;19554;42.652;23.364;2023-05-07T11:32:30;7.07;;;4.45;;
33190;SDS011;19554;42.652;23.364;2023-05-07T11:34:57;11.95;;;4.80;;
33190;SDS011;19554;42.652;23.364;2023-05-07T11:37:24;5.13;;;4.47;;
33190;SDS011;19554;42.652;23.364;2023-05-07T11:39:51;9.68;;;4.60;;
33190;SDS011;19554;42.652;23.364;2023-05-07T11:42:35;6.95;;;4.78;;
33190;SDS011;19554;42.652;23.364;2023-05-07T11:45:05;9.18;;;4.32;;
33190;SDS011;19554;42.652;23.364;2023-05-07T11:47:31;7.47;;;4.88;;
33190;SDS011;19554;42.652;23.364;2023-05-07T11:49:57;5.72;;;4.78;;
33190;SDS011;19554;42.652;23.364;2023-05-07T11:52:28;5.88;;;4.72;;
33190;SDS011;19554;42.652;23.364;2023-05-07T11:54:56;6.35;;;4.93;;
33190;SDS011;19554;42.652;23.364;2023-05-07T11:57:23;6.55;;;4.53;;
33190;SDS011;19554;42.652;23.364;2023-05-07T11:59:52;5.10;;;4.60;;
33190;SDS011;19554;42.652;23.364;2023-05-07T12:02:22;7.40;;;4.40;;
33190;SDS011;19554;42.652;23.364;2023-05-07T12:04:49;8.07;;;4.05;;
33190;SDS011;19554;42.652;23.364;2023-05-07T12:07:15;8.70;;;4.50;;
33190;SDS011;19554;42.652;23.364;2023-05-07T12:09:41;6.82;;;4.40;;
33190;SDS011;19554;42.652;23.364;2023-05-07T12:12:07;5.72;;;4.68;;
33190;SDS011;19554;42.652;23.364;2023-05-07T12:14:37;6.80;;;4.85;;
33190;SDS011;19554;42.652;23.364;2023-05-07T12:17:04;6.35;;;4.65;;
33190;SDS011;19554;42.652;23.364;2023-05-07T12:19:30;7.05;;;5.50;;
33190;SDS011;19554;42.652;23.364;2023-05-07T12:21:56;6.72;;;4.68;;
33190;SDS011;19554;42.652;23.364;2023-05-07T12:24:22;4.63;;;4.15;;
33190;SDS011;19554;42.652;23.364;2023-05-07T12:26:48;7.13;;;5.25;;
33190;SDS011;19554;42.652;23.364;2023-05-07T12:29:14;6.90;;;4.53;;
33190;SDS011;19554;42.652;23.364;2023-05-07T12:31:42;4.95;;;4.45;;
33190;SDS011;19554;42.652;23.364;2023-05-07T12:34:08;7.65;;;5.07;;
33190;SDS011;19554;42.652;23.364;2023-05-07T12:36:39;8.13;;;4.00;;
33190;SDS011;19554;42.652;23.364;2023-05-07T12:39:05;11.27;;;5.15;;
33190;SDS011;19554;42.652;23.364;2023-05-07T12:41:35;5.28;;;4.28;;
33190;SDS011;19554;42.652;23.364;2023-05-07T12:44:24;6.13;;;4.30;;
33190;SDS011;19554;42.652;23.364;2023-05-07T12:46:50;6.75;;;4.50;;
33190;SDS011;19554;42.652;23.364;2023-05-07T12:49:16;6.75;;;4.72;;
33190;SDS011;19554;42.652;23.364;2023-05-07T12:51:43;10.23;;;5.85;;
33190;SDS011;19554;42.652;23.364;2023-05-07T12:54:09;7.72;;;5.38;;
33190;SDS011;19554;42.652;23.364;2023-05-07T12:56:37;8.65;;;4.30;;
33190;SDS011;19554;42.652;23.364;2023-05-07T12:59:03;7.47;;;5.15;;
33190;SDS011;19554;42.652;23.364;2023-05-07T13:01:29;6.85;;;4.55;;
33190;SDS011;19554;42.652;23.364;2023-05-07T13:03:56;4.35;;;3.88;;
33190;SDS011;19554;42.652;23.364;2023-05-07T13:06:25;5.80;;;3.20;;
33190;SDS011;19554;42.652;23.364;2023-05-07T13:08:51;5.30;;;3.13;;
33190;SDS011;19554;42.652;23.364;2023-05-07T13:11:16;4.43;;;4.00;;
33190;SDS011;19554;42.652;23.364;2023-05-07T13:13:43;6.72;;;3.00;;
33190;SDS011;19554;42.652;23.364;2023-05-07T13:16:09;6.22;;;4.00;;
33190;SDS011;19554;42.652;23.364;2023-05-07T13:18:36;6.82;;;3.15;;
33190;SDS011;19554;42.652;23.364;2023-05-07T13:21:02;6.15;;;3.10;;
33190;SDS011;19554;42.652;23.364;2023-05-07T13:23:28;5.13;;;3.10;;
33190;SDS011;19554;42.652;23.364;2023-05-07T13:25:53;7.65;;;3.35;;
33190;SDS011;19554;42.652;23.364;2023-05-07T13:28:19;5.43;;;3.25;;
33190;SDS011;19554;42.652;23.364;2023-05-07T13:30:45;3.40;;;3.10;;
33190;SDS011;19554;42.652;23.364;2023-05-07T13:33:10;6.90;;;3.30;;
33190;SDS011;19554;42.652;23.364;2023-05-07T13:35:36;6.68;;;3.90;;
33190;SDS011;19554;42.652;23.364;2023-05-07T13:38:03;5.50;;;4.30;;
33190;SDS011;19554;42.652;23.364;2023-05-07T13:40:28;4.65;;;3.40;;
33190;SDS011;19554;42.652;23.364;2023-05-07T13:42:56;5.13;;;3.30;;
33190;SDS011;19554;42.652;23.364;2023-05-07T13:45:23;4.15;;;3.42;;
33190;SDS011;19554;42.652;23.364;2023-05-07T13:47:51;5.15;;;3.38;;
33190;SDS011;19554;42.652;23.364;2023-05-07T13:50:16;4.82;;;3.55;;
33190;SDS011;19554;42.652;23.364;2023-05-07T13:52:43;4.80;;;3.20;;
33190;SDS011;19554;42.652;23.364;2023-05-07T13:55:15;4.85;;;3.20;;
33190;SDS011;19554;42.652;23.364;2023-05-07T13:57:41;6.47;;;3.40;;
33190;SDS011;19554;42.652;23.364;2023-05-07T14:00:06;3.80;;;3.05;;
33190;SDS011;19554;42.652;23.364;2023-05-07T14:02:32;3.22;;;2.92;;
33190;SDS011;19554;42.652;23.364;2023-05-07T14:04:57;5.03;;;3.10;;
33190;SDS011;19554;42.652;23.364;2023-05-07T14:07:23;8.60;;;3.55;;
33190;SDS011;19554;42.652;23.364;2023-05-07T14:09:48;4.05;;;3.10;;
33190;SDS011;19554;42.652;23.364;2023-05-07T14:12:13;5.47;;;3.05;;
33190;SDS011;19554;42.652;23.364;2023-05-07T14:14:39;5.40;;;2.88;;
33190;SDS011;19554;42.652;23.364;2023-05-07T14:17:04;5.30;;;3.50;;
33190;SDS011;19554;42.652;23.364;2023-05-07T14:19:30;3.63;;;3.13;;
33190;SDS011;19554;42.652;23.364;2023-05-07T14:21:55;3.97;;;3.00;;
33190;SDS011;19554;42.652;23.364;2023-05-07T14:24:21;4.80;;;3.10;;
33190;SDS011;19554;42.652;23.364;2023-05-07T14:26:46;5.35;;;3.25;;
33190;SDS011;19554;42.652;23.364;2023-05-07T14:29:11;6.55;;;3.65;;
33190;SDS011;19554;42.652;23.364;2023-05-07T14:31:37;4.63;;;3.20;;
33190;SDS011;19554;42.652;23.364;2023-05-07T14:34:02;3.50;;;3.20;;
33190;SDS011;19554;42.652;23.364;2023-05-07T14:36:28;6.03;;;3.35;;
33190;SDS011;19554;42.652;23.364;2023-05-07T14:38:55;3.78;;;3.38;;